Dikungu Airport


Codes: FZVP/
Name: Dikungu Airport
City: Dikungu
Country: Congo [DRC]
Elevation: 1833 ft.

Photos at Dikungu Airport


   Photos courtesy of SpottingLog. You can add your own sightings and photos by signing up for a free trial today.



No photos found.

Weather at Dikungu Airport


Time (UTC)DescriptionTempratureWindCloud coverageVisibilityPressureHumidity
15-Apr-2024 18:00Broken Clouds27°C4 mph, SE81%10000m1010hPa71%
15-Apr-2024 21:00Overcast Clouds25°C4 mph, E93%10000m1011hPa83%
16-Apr-2024 00:00Overcast Clouds23°C4 mph, SE100%10000m1010hPa94%
16-Apr-2024 03:00Overcast Clouds23°C2 mph, SE100%10000m1011hPa92%
16-Apr-2024 06:00Overcast Clouds23°C4 mph, SE99%10000m1013hPa85%
16-Apr-2024 09:00Overcast Clouds29°C7 mph, SE95%10000m1012hPa57%
16-Apr-2024 12:00Overcast Clouds33°C4 mph, SE87%10000m1008hPa46%
16-Apr-2024 15:00Overcast Clouds29°C2 mph, SE86%10000m1007hPa64%
16-Apr-2024 18:00Broken Clouds26°C2 mph, SE53%10000m1009hPa73%
16-Apr-2024 21:00Scattered Clouds24°C4 mph, SE26%10000m1010hPa83%
17-Apr-2024 00:00Light Rain23°C4 mph, SE36%10000m1009hPa93%
17-Apr-2024 03:00Broken Clouds22°C4 mph, SE58%10000m1009hPa94%
17-Apr-2024 06:00Broken Clouds25°C7 mph, SE70%10000m1011hPa82%
17-Apr-2024 09:00Overcast Clouds31°C9 mph, SE100%10000m1011hPa57%
17-Apr-2024 12:00Broken Clouds34°C7 mph, SE75%10000m1007hPa44%
17-Apr-2024 15:00Broken Clouds32°C4 mph, SE55%10000m1006hPa50%
17-Apr-2024 18:00Broken Clouds27°C4 mph, SE57%10000m1007hPa68%
17-Apr-2024 21:00Light Rain25°C7 mph, SE89%10000m1010hPa79%
18-Apr-2024 00:00Light Rain24°C7 mph, SE94%10000m1009hPa87%
18-Apr-2024 03:00Overcast Clouds24°C7 mph, SE97%10000m1010hPa88%
18-Apr-2024 06:00Broken Clouds26°C9 mph, SE78%10000m1011hPa78%
18-Apr-2024 09:00Few Clouds32°C9 mph, SE24%10000m1011hPa52%
18-Apr-2024 12:00Scattered Clouds34°C9 mph, SE50%10000m1007hPa42%
18-Apr-2024 15:00Overcast Clouds32°C7 mph, SE95%10000m1007hPa50%
18-Apr-2024 18:00Broken Clouds26°C7 mph, SE81%10000m1007hPa73%
18-Apr-2024 21:00Scattered Clouds25°C4 mph, SE38%10000m1009hPa80%
19-Apr-2024 00:00Scattered Clouds24°C4 mph, SE47%10000m1008hPa86%
19-Apr-2024 03:00Overcast Clouds23°C4 mph, SE100%10000m1009hPa87%
19-Apr-2024 06:00Overcast Clouds26°C9 mph, SE90%10000m1010hPa73%
19-Apr-2024 09:00Overcast Clouds31°C9 mph, SE100%10000m1010hPa51%
19-Apr-2024 12:00Overcast Clouds34°C7 mph, SE100%10000m1007hPa43%
19-Apr-2024 15:00Overcast Clouds32°C4 mph, SE100%10000m1006hPa51%
19-Apr-2024 18:00Overcast Clouds27°C4 mph, SE85%10000m1007hPa69%
19-Apr-2024 21:00Overcast Clouds25°C4 mph, SE100%10000m1008hPa76%
20-Apr-2024 00:00Overcast Clouds24°C4 mph, S100%10000m1007hPa79%
20-Apr-2024 03:00Overcast Clouds23°C4 mph, S100%10000m1008hPa87%
20-Apr-2024 06:00Overcast Clouds25°C4 mph, SE100%10000m1010hPa75%
20-Apr-2024 09:00Overcast Clouds31°C7 mph, SE97%10000m1010hPa51%
20-Apr-2024 12:00Light Rain27°C9 mph, N98%10000m1009hPa73%
20-Apr-2024 15:00Light Rain26°C7 mph, NW100%10000m1008hPa79%